Time;durP1;ratioP1;P1;durP2;ratioP2;P2;SDS_P1;SDS_P2;PMS_P1;PMS_P2;Temp;Humidity;BMP_temperature;BMP_pressure;BME280_temperature;BME280_humidity;BME280_pressure;Samples;Min_cycle;Max_cycle;Signal;HPM_P1;HPM_P2
2023/04/12 00:01:26;;;;;;;;;1.75;1.00;;;;;20.52;40.68;99934.50;5085880;27;45291;-37
2023/04/12 00:03:53;;;;;;;;;1.25;1.25;;;;;20.52;40.62;99929.22;5086655;28;46385;-36
2023/04/12 00:06:31;;;;;;;;;3.00;1.75;;;;;20.51;40.63;99916.19;5089551;27;45814;-36
2023/04/12 00:09:01;;;;;;;;;1.00;1.00;;;;;20.51;40.95;99917.00;5087633;27;45149;-37
2023/04/12 00:11:27;;;;;;;;;1.00;1.00;;;;;20.51;40.69;99919.66;5080999;27;45350;-37
2023/04/12 00:13:53;;;;;;;;;1.00;1.00;;;;;20.50;40.87;99914.50;5088488;27;45774;-37
2023/04/12 00:16:19;;;;;;;;;0.25;0.25;;;;;20.49;40.63;99902.28;5087412;27;45149;-37
2023/04/12 00:18:45;;;;;;;;;1.00;1.00;;;;;20.49;41.06;99897.00;5087221;27;45337;-37
2023/04/12 00:21:10;;;;;;;;;2.00;1.00;;;;;20.48;40.51;99890.06;5094884;27;45556;-38
2023/04/12 00:23:39;;;;;;;;;1.00;1.00;;;;;20.48;40.72;99892.69;5093538;27;45412;-38
2023/04/12 00:26:05;;;;;;;;;1.50;1.00;;;;;20.48;40.66;99885.66;5090152;27;45717;-37
2023/04/12 00:28:30;;;;;;;;;2.50;1.00;;;;;20.47;40.58;99883.13;5097293;28;45451;-37
2023/04/12 00:30:58;;;;;;;;;1.50;1.50;;;;;20.47;40.99;99869.97;5091107;28;45401;-37
2023/04/12 00:33:23;;;;;;;;;1.00;1.00;;;;;20.47;40.98;99867.31;5089995;28;65924;-37
2023/04/12 00:35:48;;;;;;;;;1.75;1.00;;;;;20.47;40.67;99859.44;5088383;28;45333;-37
2023/04/12 00:38:15;;;;;;;;;0.50;0.00;;;;;20.46;40.56;99855.13;5082886;28;45388;-37
2023/04/12 00:40:41;;;;;;;;;4.25;1.25;;;;;20.46;40.46;99855.13;5079072;28;45337;-36
2023/04/12 00:43:07;;;;;;;;;0.75;0.00;;;;;20.45;40.99;99848.19;5080159;27;47486;-37
2023/04/12 00:45:34;;;;;;;;;1.50;1.50;;;;;20.44;40.77;99838.63;5085313;27;45262;-36
2023/04/12 00:48:00;;;;;;;;;1.00;1.00;;;;;20.45;40.71;99840.28;5082425;28;45397;-37
2023/04/12 00:50:25;;;;;;;;;1.00;1.00;;;;;20.43;40.63;99829.03;5094265;27;45350;-37
2023/04/12 00:52:52;;;;;;;;;1.75;0.75;;;;;20.43;40.58;99818.50;5090532;28;46419;-37
2023/04/12 00:55:18;;;;;;;;;3.50;1.00;;;;;20.42;40.47;99809.75;5083082;28;45408;-37
2023/04/12 00:57:43;;;;;;;;;1.75;1.00;;;;;20.43;40.69;99811.44;5079887;28;45403;-36
2023/04/12 01:00:12;;;;;;;;;1.00;1.00;;;;;20.43;41.14;99805.34;5078849;28;45450;-37
2023/04/12 01:02:45;;;;;;;;;2.00;1.00;;;;;20.43;41.05;99815.88;5083266;27;46508;-37
2023/04/12 01:05:13;;;;;;;;;2.75;1.00;;;;;20.41;41.01;99800.16;5078237;27;45304;-37
2023/04/12 01:08:07;;;;;;;;;1.00;1.00;;;;;20.42;41.03;99779.97;5082208;27;45211;-36
2023/04/12 01:10:40;;;;;;;;;0.75;0.50;;;;;20.40;41.22;99764.28;5082557;28;45544;-37
2023/04/12 01:13:24;;;;;;;;;1.75;1.00;;;;;20.38;40.97;99756.50;5077890;27;47436;-37
2023/04/12 01:15:57;;;;;;;;;1.00;1.00;;;;;20.39;41.13;99755.56;5078299;28;45385;-37
2023/04/12 01:18:26;;;;;;;;;1.00;1.00;;;;;20.38;41.23;99748.59;5079333;27;45343;-37
2023/04/12 01:21:08;;;;;;;;;2.00;1.00;;;;;20.38;40.84;99747.78;5080979;27;45600;-36
2023/04/12 01:23:55;;;;;;;;;0.00;0.00;;;;;20.38;40.95;99751.22;5082486;27;47080;-37
2023/04/12 01:26:48;;;;;;;;;0.75;0.25;;;;;20.37;40.57;99746.91;5085372;28;45284;-37
2023/04/12 01:29:16;;;;;;;;;1.00;1.00;;;;;20.38;40.96;99742.50;5087576;28;45512;-46
2023/04/12 01:31:53;;;;;;;;;0.50;0.50;;;;;20.38;40.53;99745.16;5094079;28;45201;-36
2023/04/12 01:34:20;;;;;;;;;2.75;0.00;;;;;20.37;40.98;99731.13;5099967;27;46065;-37
2023/04/12 01:36:46;;;;;;;;;2.00;0.50;;;;;20.36;40.73;99718.09;5098939;28;45488;-36
2023/04/12 01:39:12;;;;;;;;;1.50;1.50;;;;;20.36;40.65;99708.41;5086988;27;45313;-37
2023/04/12 01:41:44;;;;;;;;;3.25;1.75;;;;;20.36;40.99;99702.31;5079827;28;45310;-37
2023/04/12 01:44:14;;;;;;;;;1.00;1.00;;;;;20.36;41.00;99703.13;5083650;28;47383;-37
2023/04/12 01:46:39;;;;;;;;;1.00;1.00;;;;;20.36;40.73;99695.25;5085206;28;45764;-37
2023/04/12 01:49:05;;;;;;;;;2.25;0.00;;;;;20.35;40.88;99685.66;5079681;27;45316;-37
2023/04/12 01:52:00;;;;;;;;;1.50;1.50;;;;;20.35;41.04;99680.41;5079219;28;45822;-37
2023/04/12 01:54:32;;;;;;;;;1.50;1.50;;;;;20.35;40.92;99683.03;5087358;27;46532;-37
2023/04/12 01:57:03;;;;;;;;;1.00;1.00;;;;;20.34;40.87;99668.19;5085744;27;45355;-37
2023/04/12 01:59:38;;;;;;;;;1.50;1.00;;;;;20.35;41.11;99684.84;5079998;27;45283;-38
2023/04/12 02:02:04;;;;;;;;;1.00;1.00;;;;;20.34;40.74;99672.63;5081913;28;45197;-37
2023/04/12 02:04:31;;;;;;;;;1.00;1.00;;;;;20.34;41.13;99662.09;5082541;27;46063;-37
2023/04/12 02:06:56;;;;;;;;;1.00;1.00;;;;;20.32;41.20;99659.59;5080054;27;45364;-38
2023/04/12 02:09:22;;;;;;;;;4.50;2.00;;;;;20.33;40.65;99663.06;5081080;28;45333;-37
2023/04/12 02:11:48;;;;;;;;;2.75;1.25;;;;;20.32;41.20;99648.22;5088264;27;45314;-37
2023/04/12 02:14:14;;;;;;;;;1.00;1.00;;;;;20.33;40.91;99644.63;5085807;28;46073;-36
2023/04/12 02:16:44;;;;;;;;;1.00;1.00;;;;;20.32;41.22;99642.94;5092048;27;45456;-37
2023/04/12 02:19:10;;;;;;;;;2.00;0.50;;;;;20.33;41.11;99642.00;5093695;27;45273;-37
2023/04/12 02:21:43;;;;;;;;;1.00;1.00;;;;;20.33;41.20;99623.59;5093924;27;45301;-37
2023/04/12 02:24:10;;;;;;;;;2.75;0.75;;;;;20.32;40.86;99616.63;5096047;28;46201;-37
2023/04/12 02:26:36;;;;;;;;;1.00;1.00;;;;;20.30;41.07;99605.38;5081931;27;45863;-36
2023/04/12 02:29:02;;;;;;;;;2.00;0.00;;;;;20.31;41.28;99605.28;5095655;27;44762;-37
2023/04/12 02:31:34;;;;;;;;;1.75;1.75;;;;;20.31;41.16;99605.28;5090457;27;45343;-37
2023/04/12 02:34:00;;;;;;;;;2.25;1.00;;;;;20.30;41.21;99595.72;5095528;28;45129;-40
2023/04/12 02:36:25;;;;;;;;;2.00;0.00;;;;;20.31;41.15;99593.91;5094455;27;45484;-37
2023/04/12 02:38:51;;;;;;;;;1.00;1.00;;;;;20.30;40.83;99586.97;5091861;28;45291;-37
2023/04/12 02:41:20;;;;;;;;;1.00;1.00;;;;;20.29;41.22;99574.75;5095587;27;45486;-38
2023/04/12 02:43:46;;;;;;;;;2.00;0.00;;;;;20.30;40.73;99577.28;5093873;27;45268;-37
2023/04/12 02:46:24;;;;;;;;;2.00;1.00;;;;;20.30;40.95;99585.19;5089716;28;46014;-37
2023/04/12 02:48:50;;;;;;;;;0.00;0.00;;;;;20.30;41.14;99561.50;5088401;27;45300;-37
2023/04/12 02:51:16;;;;;;;;;0.25;0.25;;;;;20.29;40.94;99558.97;5089082;27;45346;-37
2023/04/12 02:53:41;;;;;;;;;1.00;1.00;;;;;20.30;41.22;99555.38;5082610;27;47984;-37
2023/04/12 02:56:07;;;;;;;;;1.75;1.00;;;;;20.29;40.96;99556.34;5080538;28;45382;-37
2023/04/12 02:58:34;;;;;;;;;2.00;1.00;;;;;20.29;41.05;99554.56;5078199;27;45554;-37
2023/04/12 03:01:00;;;;;;;;;1.00;1.00;;;;;20.28;40.81;99537.09;5081598;27;45480;-37
2023/04/12 03:03:27;;;;;;;;;0.00;0.00;;;;;20.29;41.04;99553.72;5080886;28;45442;-37
2023/04/12 03:05:53;;;;;;;;;1.00;1.00;;;;;20.28;40.65;99546.78;5094514;27;45741;-37
2023/04/12 03:08:19;;;;;;;;;1.50;0.00;;;;;20.28;41.14;99547.63;5092396;27;45317;-37
2023/04/12 03:10:44;;;;;;;;;1.00;1.00;;;;;20.29;40.74;99540.56;5096372;28;45178;-37
2023/04/12 03:13:10;;;;;;;;;1.75;0.00;;;;;20.28;41.02;99542.34;5100087;27;46101;-37
2023/04/12 03:15:36;;;;;;;;;1.00;0.00;;;;;20.28;41.31;99531.84;5092783;27;45376;-37
2023/04/12 03:18:01;;;;;;;;;1.00;1.00;;;;;20.28;40.97;99531.84;5093489;27;44744;-37
2023/04/12 03:20:27;;;;;;;;;2.25;1.50;;;;;20.27;41.26;99524.88;5089073;27;45657;-37
2023/04/12 03:22:52;;;;;;;;;1.75;0.25;;;;;20.27;40.89;99519.63;5092853;28;46293;-37
2023/04/12 03:25:17;;;;;;;;;2.00;1.00;;;;;20.27;40.86;99524.88;5100333;28;54223;-38
2023/04/12 03:27:43;;;;;;;;;2.00;1.00;;;;;20.28;41.45;99531.84;5101670;27;44926;-37
2023/04/12 03:30:10;;;;;;;;;0.75;0.75;;;;;20.26;40.95;99552.16;5099122;27;45241;-37
2023/04/12 03:32:36;;;;;;;;;0.50;0.50;;;;;20.27;41.18;99566.97;5083060;27;44946;-37
2023/04/12 03:35:02;;;;;;;;;0.00;0.00;;;;;20.26;41.28;99565.31;5067562;28;45424;-39
2023/04/12 03:37:27;;;;;;;;;0.00;0.00;;;;;20.27;40.98;99579.31;5084425;28;45321;-37
2023/04/12 03:39:53;;;;;;;;;0.75;0.75;;;;;20.26;40.90;99569.75;5083913;28;45374;-37
2023/04/12 03:42:18;;;;;;;;;1.00;1.00;;;;;20.25;41.05;99568.88;5091677;28;46210;-37
2023/04/12 03:44:43;;;;;;;;;0.00;0.00;;;;;20.24;41.30;99557.53;5085256;28;45238;-36
2023/04/12 03:47:10;;;;;;;;;1.00;1.00;;;;;20.26;41.52;99557.41;5085527;27;45319;-38
2023/04/12 03:49:37;;;;;;;;;1.00;1.00;;;;;20.26;41.06;99565.31;5081483;27;45382;-37
2023/04/12 03:52:03;;;;;;;;;2.25;0.50;;;;;20.27;41.28;99556.47;5080437;27;46294;-37
2023/04/12 03:54:29;;;;;;;;;2.00;0.00;;;;;20.26;41.16;99544.25;5080383;27;45821;-37
2023/04/12 03:56:55;;;;;;;;;0.00;0.00;;;;;20.25;41.07;99537.31;5080531;28;45378;-37
2023/04/12 03:59:20;;;;;;;;;0.00;0.00;;;;;20.27;41.16;99538.03;5085191;27;45432;-37
2023/04/12 04:01:46;;;;;;;;;0.75;0.00;;;;;20.25;41.63;99545.22;5086731;28;51801;-37
2023/04/12 04:04:12;;;;;;;;;0.00;0.00;;;;;20.25;41.73;99539.94;5085016;27;45403;-37
2023/04/12 04:06:38;;;;;;;;;0.00;0.00;;;;;20.25;41.07;99539.94;5084011;27;45342;-37
2023/04/12 04:09:04;;;;;;;;;0.00;0.00;;;;;20.25;41.72;99542.56;5079892;28;45457;-38
2023/04/12 04:11:30;;;;;;;;;0.00;0.00;;;;;20.26;41.26;99546.06;5081622;27;46417;-38
2023/04/12 04:13:55;;;;;;;;;1.50;1.00;;;;;20.26;41.46;99540.81;5082418;28;45865;-37
2023/04/12 04:16:21;;;;;;;;;0.50;0.00;;;;;20.24;41.58;99539.13;5089079;28;45312;-37
2023/04/12 04:18:46;;;;;;;;;0.00;0.00;;;;;20.25;41.16;99526.78;5091523;27;45989;-37
2023/04/12 04:21:13;;;;;;;;;0.00;0.00;;;;;20.25;41.63;99529.41;5091626;28;46164;-37
2023/04/12 04:23:38;;;;;;;;;0.00;0.00;;;;;20.23;41.13;99528.69;5091266;27;45187;-37
2023/04/12 04:26:10;;;;;;;;;1.00;0.00;;;;;20.24;41.55;99525.09;5085254;27;45384;-37
2023/04/12 04:28:37;;;;;;;;;1.00;0.00;;;;;20.23;41.11;99533.97;5100428;27;45300;-37
2023/04/12 04:31:05;;;;;;;;;0.00;0.00;;;;;20.23;41.68;99531.31;5098152;27;45424;-37
2023/04/12 04:33:31;;;;;;;;;0.00;0.00;;;;;20.22;41.59;99533.13;5084384;27;45367;-37
2023/04/12 04:35:57;;;;;;;;;1.50;0.00;;;;;20.23;41.20;99528.69;5088351;27;45367;-37
2023/04/12 04:38:25;;;;;;;;;0.00;0.00;;;;;20.22;41.29;99527.88;5099483;28;45160;-37
2023/04/12 04:40:54;;;;;;;;;0.75;0.75;;;;;20.22;41.19;99527.88;5103910;27;46626;-37
2023/04/12 04:43:20;;;;;;;;;0.00;0.00;;;;;20.22;41.68;99529.66;5101177;27;45483;-37
2023/04/12 04:45:49;;;;;;;;;0.00;0.00;;;;;20.25;41.63;99542.56;5089044;27;45320;-37
2023/04/12 04:48:15;;;;;;;;;0.00;0.00;;;;;20.25;41.42;99537.31;5093629;27;45408;-39
2023/04/12 04:50:40;;;;;;;;;0.00;0.00;;;;;20.25;42.00;99532.06;5095972;27;45584;-37
2023/04/12 04:53:06;;;;;;;;;3.00;0.00;;;;;20.25;42.05;99529.41;5087323;27;44875;-37
2023/04/12 04:55:31;;;;;;;;;1.00;0.00;;;;;20.24;42.03;99525.97;5085664;27;45303;-37
2023/04/12 04:57:57;;;;;;;;;0.00;0.00;;;;;20.26;41.79;99520.56;5085463;28;45325;-36
2023/04/12 05:00:24;;;;;;;;;0.00;0.00;;;;;20.26;42.05;99527.66;5082452;27;45348;-37
2023/04/12 05:02:50;;;;;;;;;1.00;0.00;;;;;20.24;42.06;99515.44;5082158;27;45361;-37
2023/04/12 05:05:16;;;;;;;;;2.00;0.75;;;;;20.25;42.10;99521.53;5078898;28;45294;-37
2023/04/12 05:07:44;;;;;;;;;1.00;1.00;;;;;20.25;42.39;99497.84;5085602;27;45523;-37
2023/04/12 05:10:10;;;;;;;;;1.00;1.00;;;;;20.23;42.53;99505.88;5083103;27;46286;-37
2023/04/12 05:12:36;;;;;;;;;2.00;0.00;;;;;20.28;43.77;99518.69;5078795;27;45842;-37
2023/04/12 05:15:02;;;;;;;;;1.75;1.00;;;;;20.32;44.10;99521.91;5078685;27;45276;-37
2023/04/12 05:17:27;;;;;;;;;1.50;0.25;;;;;20.36;43.61;99529.47;5080787;28;45565;-37
2023/04/12 05:19:53;;;;;;;;;3.00;0.00;;;;;20.39;44.04;99513.44;5092554;28;57667;-37
2023/04/12 05:22:21;;;;;;;;;1.25;0.75;;;;;20.42;43.83;99520.25;5090371;27;45341;-37
2023/04/12 05:24:47;;;;;;;;;1.25;0.75;;;;;20.45;43.98;99517.41;5084903;27;45374;-37
2023/04/12 05:27:15;;;;;;;;;1.00;0.00;;;;;20.46;43.53;99524.34;5087334;27;45385;-37
2023/04/12 05:29:41;;;;;;;;;3.00;1.00;;;;;20.44;43.64;99535.94;5084007;27;46517;-37
2023/04/12 05:32:06;;;;;;;;;0.00;0.00;;;;;20.45;43.81;99556.06;5080819;27;45297;-37
2023/04/12 05:34:31;;;;;;;;;1.00;0.00;;;;;20.42;43.38;99570.25;5083873;28;45466;-38
2023/04/12 05:36:58;;;;;;;;;0.00;0.00;;;;;20.42;43.95;99572.06;5089461;28;57032;-37
2023/04/12 05:39:24;;;;;;;;;4.75;0.25;;;;;20.42;43.65;99587.84;5092571;27;46779;-37
2023/04/12 05:41:50;;;;;;;;;2.25;0.50;;;;;20.41;43.87;99583.53;5088213;27;45474;-37
2023/04/12 05:44:15;;;;;;;;;0.00;0.00;;;;;20.39;43.81;99584.50;5080805;28;45205;-37
2023/04/12 05:46:40;;;;;;;;;0.00;0.00;;;;;20.39;43.67;99584.50;5077741;28;46205;-36
2023/04/12 05:49:06;;;;;;;;;0.00;0.00;;;;;20.38;44.22;99582.81;5077539;27;46076;-37
2023/04/12 05:51:32;;;;;;;;;4.00;0.00;;;;;20.35;44.28;99588.28;5078569;27;45332;-37
2023/04/12 05:53:57;;;;;;;;;0.75;0.00;;;;;20.37;43.98;99602.19;5077401;28;45251;-37
2023/04/12 05:56:22;;;;;;;;;0.25;0.25;;;;;20.35;44.02;99606.72;5077417;27;45392;-37
2023/04/12 05:58:48;;;;;;;;;1.00;0.00;;;;;20.35;43.87;99605.88;5078316;28;59099;-37
2023/04/12 06:01:15;;;;;;;;;0.00;0.00;;;;;20.36;44.21;99612.84;5080480;28;45305;-37
2023/04/12 06:03:42;;;;;;;;;0.00;0.00;;;;;20.34;43.76;99612.94;5082001;27;45731;-37
2023/04/12 06:06:08;;;;;;;;;2.00;0.00;;;;;20.34;43.88;99626.09;5081164;27;45393;-38
2023/04/12 06:08:34;;;;;;;;;0.00;0.00;;;;;20.33;44.10;99634.97;5079451;27;45790;-37
2023/04/12 06:10:59;;;;;;;;;0.00;0.00;;;;;20.32;43.75;99630.66;5084449;27;45259;-37
2023/04/12 06:13:24;;;;;;;;;0.00;0.00;;;;;20.32;43.75;99628.03;5087665;27;45240;-38
2023/04/12 06:15:50;;;;;;;;;1.00;0.00;;;;;20.33;43.97;99629.69;5084628;28;45623;-37
2023/04/12 06:18:15;;;;;;;;;2.00;0.00;;;;;20.31;44.16;99620.22;5087651;28;69453;-37
2023/04/12 06:20:40;;;;;;;;;0.00;0.00;;;;;20.32;44.21;99611.38;5079817;28;45308;-37
2023/04/12 06:23:06;;;;;;;;;0.00;0.00;;;;;20.30;43.79;99594.84;5080822;28;45622;-36
2023/04/12 06:25:32;;;;;;;;;0.50;0.00;;;;;20.31;43.63;99605.28;5081594;28;45258;-36
2023/04/12 06:27:57;;;;;;;;;0.00;0.00;;;;;20.29;44.07;99625.59;5078420;27;46176;-37
2023/04/12 06:30:23;;;;;;;;;0.75;0.00;;;;;20.30;43.67;99631.69;5082316;28;45181;-36
2023/04/12 06:32:48;;;;;;;;;0.00;0.00;;;;;20.30;44.17;99640.44;5095580;28;45240;-37
2023/04/12 06:35:14;;;;;;;;;0.00;0.00;;;;;20.30;43.59;99637.81;5096276;27;45311;-37
2023/04/12 06:37:39;;;;;;;;;0.50;0.00;;;;;20.30;43.98;99635.19;5085027;28;47086;-37
2023/04/12 06:40:05;;;;;;;;;0.00;0.00;;;;;20.29;43.67;99636.13;5084649;27;45145;-37
2023/04/12 06:42:31;;;;;;;;;0.00;0.00;;;;;20.29;43.84;99625.59;5080090;27;45298;-38
2023/04/12 06:44:56;;;;;;;;;0.00;0.00;;;;;20.29;43.92;99612.44;5077008;28;45373;-38
2023/04/12 06:47:21;;;;;;;;;0.33;0.00;;;;;20.27;43.89;99608.25;5076360;28;58479;-37
2023/04/12 06:49:47;;;;;;;;;0.00;0.00;;;;;20.28;43.72;99613.41;5078411;27;45365;-37
2023/04/12 06:52:12;;;;;;;;;0.50;0.50;;;;;20.28;43.45;99616.03;5079881;27;45529;-37
2023/04/12 06:54:38;;;;;;;;;0.50;0.50;;;;;20.30;43.65;99621.16;5085575;27;45606;-37
2023/04/12 06:57:08;;;;;;;;;1.00;0.00;;;;;20.28;43.71;99642.34;5085172;27;47096;-37
2023/04/12 06:59:33;;;;;;;;;0.00;0.00;;;;;20.27;43.62;99639.84;5079947;28;45819;-37
2023/04/12 07:01:59;;;;;;;;;0.00;0.00;;;;;20.27;44.06;99645.91;5080272;27;45255;-37
2023/04/12 07:04:24;;;;;;;;;0.00;0.00;;;;;20.28;43.81;99646.78;5080730;28;45198;-37
2023/04/12 07:06:49;;;;;;;;;0.00;0.00;;;;;20.28;43.49;99639.72;5080389;28;45738;-38
2023/04/12 07:09:15;;;;;;;;;0.00;0.00;;;;;20.27;43.73;99640.66;5079038;28;61363;-37
2023/04/12 07:11:40;;;;;;;;;0.00;0.00;;;;;20.27;43.44;99634.56;5080677;27;45377;-37
2023/04/12 07:14:06;;;;;;;;;0.00;0.00;;;;;20.29;43.69;99636.13;5082975;28;45468;-38
2023/04/12 07:16:31;;;;;;;;;0.00;0.00;;;;;20.28;43.29;99629.19;5087031;28;45571;-37
2023/04/12 07:18:58;;;;;;;;;0.00;0.00;;;;;20.29;43.79;99630.00;5084416;27;45310;-36
2023/04/12 07:21:24;;;;;;;;;0.00;0.00;;;;;20.29;43.43;99617.72;5082121;27;45388;-36
2023/04/12 07:23:50;;;;;;;;;0.50;0.00;;;;;20.31;43.38;99610.53;5084524;28;45529;-36
2023/04/12 07:26:16;;;;;;;;;0.00;0.00;;;;;20.30;43.18;99611.50;5086718;28;45826;-36
2023/04/12 07:28:42;;;;;;;;;0.25;0.25;;;;;20.30;43.53;99618.53;5079669;28;45462;-35
2023/04/12 07:31:07;;;;;;;;;0.00;0.00;;;;;20.31;43.51;99605.28;5085968;28;55488;-36
2023/04/12 07:33:34;;;;;;;;;1.00;0.00;;;;;20.32;43.13;99609.59;5096392;27;44857;-36
2023/04/12 07:36:00;;;;;;;;;0.50;0.00;;;;;20.32;43.52;99606.13;5083256;28;47781;-36
2023/04/12 07:38:25;;;;;;;;;2.00;0.00;;;;;20.31;43.42;99594.75;5080382;27;45314;-35
2023/04/12 07:40:50;;;;;;;;;0.00;0.00;;;;;20.32;43.21;99590.31;5080370;28;45611;-35
2023/04/12 07:43:16;;;;;;;;;2.67;0.00;;;;;20.34;43.22;99589.25;5078148;28;55850;-36
2023/04/12 07:45:41;;;;;;;;;0.00;0.00;;;;;20.36;43.04;99592.59;5078048;28;46439;-37
2023/04/12 07:48:07;;;;;;;;;0.25;0.00;;;;;20.37;43.46;99582.94;5080365;28;45336;-35
2023/04/12 07:50:32;;;;;;;;;2.00;0.00;;;;;20.37;43.24;99583.75;5083459;28;45454;-36
2023/04/12 07:53:19;;;;;;;;;1.00;0.00;;;;;20.37;42.81;99583.75;5087561;28;45338;-34
2023/04/12 07:55:44;;;;;;;;;0.00;0.00;;;;;20.37;43.33;99581.13;5082698;28;46491;-37
2023/04/12 07:58:10;;;;;;;;;0.00;0.00;;;;;20.38;42.86;99587.25;5079351;28;45192;-35
2023/04/12 08:00:35;;;;;;;;;0.25;0.00;;;;;20.39;43.21;99600.28;5080736;27;45800;-34
2023/04/12 08:03:03;;;;;;;;;0.00;0.00;;;;;20.38;42.81;99597.78;5080672;28;45565;-35
2023/04/12 08:05:29;;;;;;;;;0.00;0.00;;;;;20.39;42.91;99604.72;5080813;27;46716;-35
2023/04/12 08:07:55;;;;;;;;;0.00;0.00;;;;;20.41;43.26;99604.59;5086912;28;45253;-37
2023/04/12 08:10:20;;;;;;;;;2.00;0.00;;;;;20.42;42.90;99603.66;5096723;28;45265;-36
2023/04/12 08:12:45;;;;;;;;;0.00;0.00;;;;;20.41;42.70;99610.69;5080994;28;45307;-37
2023/04/12 08:15:12;;;;;;;;;1.00;0.00;;;;;20.42;43.05;99622.91;5096003;28;56440;-38
2023/04/12 08:17:37;;;;;;;;;0.00;0.00;;;;;20.44;42.55;99633.31;5091396;27;45315;-37
2023/04/12 08:20:03;;;;;;;;;0.00;0.00;;;;;20.45;42.61;99627.94;5083610;27;45504;-45
2023/04/12 08:22:29;;;;;;;;;0.00;0.00;;;;;20.46;42.89;99644.56;5083909;27;45425;-36
2023/04/12 08:24:54;;;;;;;;;0.50;0.00;;;;;20.45;42.77;99648.16;5061237;28;47410;-36
2023/04/12 08:27:19;;;;;;;;;0.00;0.00;;;;;20.47;42.75;99662.03;5079695;28;45313;-37
2023/04/12 08:29:45;;;;;;;;;1.75;0.00;;;;;20.46;42.87;99660.34;5081683;27;45360;-36
2023/04/12 08:32:11;;;;;;;;;0.00;0.00;;;;;20.47;42.76;99664.66;5085671;28;44843;-36
2023/04/12 08:34:37;;;;;;;;;1.00;0.00;;;;;20.46;42.90;99663.84;5083193;28;47425;-37
2023/04/12 08:37:02;;;;;;;;;2.00;0.00;;;;;20.47;43.00;99672.56;5086064;27;45322;-37
2023/04/12 08:39:27;;;;;;;;;1.00;0.00;;;;;20.46;42.50;99670.88;5094750;27;45181;-36
2023/04/12 08:41:54;;;;;;;;;0.00;0.00;;;;;20.47;42.89;99664.66;5087119;27;45203;-38
2023/04/12 08:44:32;;;;;;;;;2.00;0.00;;;;;20.47;42.59;99657.63;5082618;28;46150;-37
2023/04/12 08:46:58;;;;;;;;;0.00;0.00;;;;;20.48;42.94;99661.06;5088991;27;45460;-37
2023/04/12 08:49:23;;;;;;;;;0.00;0.00;;;;;20.49;42.30;99662.75;5083864;28;45429;-36
2023/04/12 08:51:52;;;;;;;;;0.00;0.00;;;;;20.49;42.35;99668.88;5080307;27;45553;-36
2023/04/12 08:54:17;;;;;;;;;2.25;1.00;;;;;20.48;41.85;99669.84;5094560;27;46229;-36
2023/04/12 08:56:44;;;;;;;;;0.00;0.00;;;;;20.48;42.12;99668.97;5104120;28;44642;-37
2023/04/12 08:59:11;;;;;;;;;0.00;0.00;;;;;20.47;41.78;99669.91;5102510;27;45211;-37
2023/04/12 09:01:40;;;;;;;;;0.75;0.00;;;;;20.47;41.79;99677.81;5094708;27;45388;-38
2023/04/12 09:04:06;;;;;;;;;2.00;0.00;;;;;20.46;42.02;99686.66;5091121;27;45397;-39
2023/04/12 09:06:32;;;;;;;;;0.00;0.00;;;;;20.44;42.08;99686.78;5092181;27;45304;-38
2023/04/12 09:08:59;;;;;;;;;0.00;0.00;;;;;20.43;41.96;99679.03;5089364;27;45287;-37
2023/04/12 09:11:26;;;;;;;;;0.00;0.00;;;;;20.41;41.37;99683.53;5085968;27;45320;-38
2023/04/12 09:13:53;;;;;;;;;0.00;0.00;;;;;20.39;41.90;99683.66;5086548;28;45357;-37
2023/04/12 09:16:34;;;;;;;;;0.00;0.00;;;;;20.42;41.70;99690.50;5091747;27;45406;-38
2023/04/12 09:19:01;;;;;;;;;0.00;0.00;;;;;20.44;41.57;99691.22;5085491;27;45254;-38
2023/04/12 09:21:27;;;;;;;;;0.50;0.00;;;;;20.43;41.74;99684.28;5085685;28;45459;-37
2023/04/12 09:24:02;;;;;;;;;0.25;0.00;;;;;20.41;41.65;99683.53;5082864;28;45893;-37
2023/04/12 09:26:29;;;;;;;;;0.00;0.00;;;;;20.42;41.96;99687.88;5079505;27;45402;-38
2023/04/12 09:28:54;;;;;;;;;0.00;0.00;;;;;20.43;41.90;99686.91;5093770;27;45210;-38
2023/04/12 09:31:19;;;;;;;;;0.00;0.00;;;;;20.41;41.71;99683.53;5097902;28;44900;-37
2023/04/12 09:33:45;;;;;;;;;0.25;0.25;;;;;20.42;41.83;99685.22;5096187;27;46378;-37
2023/04/12 09:36:13;;;;;;;;;0.00;0.00;;;;;20.43;41.77;99684.28;5091021;27;45424;-37
2023/04/12 09:38:40;;;;;;;;;0.25;0.00;;;;;20.44;41.55;99683.34;5096026;28;44639;-37
2023/04/12 09:41:18;;;;;;;;;0.25;0.00;;;;;20.44;41.97;99685.97;5082953;27;45222;-37
2023/04/12 09:43:43;;;;;;;;;0.00;0.00;;;;;20.44;41.35;99693.84;5091605;27;46329;-37
2023/04/12 09:46:11;;;;;;;;;0.00;0.00;;;;;20.43;41.79;99692.19;5090625;28;45497;-37
2023/04/12 09:48:38;;;;;;;;;1.25;0.00;;;;;20.43;41.68;99697.44;5091391;27;45432;-37
2023/04/12 09:51:05;;;;;;;;;1.00;0.00;;;;;20.44;41.63;99705.22;5080168;27;46251;-37
2023/04/12 09:53:33;;;;;;;;;1.25;0.00;;;;;20.45;41.17;99695.53;5079258;28;47332;-37
2023/04/12 09:56:00;;;;;;;;;0.00;0.00;;;;;20.45;41.55;99708.69;5080615;28;45492;-37
2023/04/12 09:58:27;;;;;;;;;1.00;0.00;;;;;20.45;41.67;99709.53;5078830;27;45250;-37
2023/04/12 10:00:58;;;;;;;;;0.00;0.00;;;;;20.46;41.29;99707.72;5079426;28;45343;-37
2023/04/12 10:03:24;;;;;;;;;2.00;0.00;;;;;20.45;41.06;99706.06;5083438;27;47227;-37
2023/04/12 10:05:49;;;;;;;;;0.00;0.00;;;;;20.44;41.49;99704.38;5095151;27;45428;-37
2023/04/12 10:08:16;;;;;;;;;0.75;0.00;;;;;20.43;41.60;99697.44;5084376;28;59945;-37
2023/04/12 10:10:44;;;;;;;;;0.50;0.00;;;;;20.44;41.24;99701.75;5083940;27;45602;-37
2023/04/12 10:13:11;;;;;;;;;1.50;0.00;;;;;20.43;41.30;99692.19;5087044;27;46520;-37
2023/04/12 10:15:38;;;;;;;;;0.00;0.00;;;;;20.43;40.96;99697.44;5092757;27;45802;-37
2023/04/12 10:18:05;;;;;;;;;0.00;0.00;;;;;20.41;40.92;99697.53;5087121;27;45385;-37
2023/04/12 10:20:31;;;;;;;;;0.00;0.00;;;;;20.42;41.15;99701.03;5085968;27;45495;-37
2023/04/12 10:22:58;;;;;;;;;0.00;0.00;;;;;20.41;41.32;99699.34;5085975;27;45345;-37
2023/04/12 10:25:25;;;;;;;;;0.75;0.75;;;;;20.41;41.28;99707.22;5083675;27;45230;-37
2023/04/12 10:27:51;;;;;;;;;0.00;0.00;;;;;20.39;40.96;99697.66;5080833;27;45405;-36
2023/04/12 10:30:26;;;;;;;;;0.00;0.00;;;;;20.37;40.69;99702.19;5080176;27;45317;-37
2023/04/12 10:33:03;;;;;;;;;0.25;0.00;;;;;20.38;41.19;99716.19;5081150;27;46164;-36
2023/04/12 10:35:47;;;;;;;;;0.00;0.00;;;;;20.36;41.30;99711.03;5085278;28;45395;-37
2023/04/12 10:38:13;;;;;;;;;0.00;0.00;;;;;20.35;40.86;99709.34;5087554;27;45365;-37
2023/04/12 10:41:11;;;;;;;;;0.00;0.00;;;;;20.35;41.08;99708.53;5079915;27;45397;-37
2023/04/12 10:43:37;;;;;;;;;0.00;0.00;;;;;20.34;40.55;99710.28;5097091;27;46852;-36
2023/04/12 10:46:04;;;;;;;;;0.25;0.25;;;;;20.34;40.84;99712.94;5091760;27;45448;-37
2023/04/12 10:48:35;;;;;;;;;0.00;0.00;;;;;20.33;40.68;99708.66;5087121;27;45278;-37
2023/04/12 10:51:14;;;;;;;;;0.50;0.00;;;;;20.34;40.98;99710.28;5088706;28;45393;-37
2023/04/12 10:53:40;;;;;;;;;0.00;0.00;;;;;20.36;40.54;99707.56;5086175;27;46469;-37
2023/04/12 10:56:31;;;;;;;;;0.00;0.00;;;;;20.36;40.84;99703.13;5087434;27;45317;-37
2023/04/12 10:59:04;;;;;;;;;0.25;0.25;;;;;20.37;41.00;99714.50;5068640;27;45219;-37
2023/04/12 11:01:30;;;;;;;;;0.00;0.00;;;;;20.37;40.63;99714.50;5094062;27;45412;-37
2023/04/12 11:04:12;;;;;;;;;1.00;0.00;;;;;20.37;40.50;99712.72;5085659;27;46371;-37
2023/04/12 11:06:50;;;;;;;;;0.00;0.00;;;;;20.36;40.76;99716.28;5086847;27;45407;-37
2023/04/12 11:09:42;;;;;;;;;1.00;0.00;;;;;20.38;40.68;99714.41;5080557;27;45315;-38
2023/04/12 11:12:07;;;;;;;;;0.00;0.00;;;;;20.39;40.49;99713.44;5079846;27;45432;-37
2023/04/12 11:14:47;;;;;;;;;2.75;0.00;;;;;20.38;40.59;99705.66;5081865;28;46513;-37
2023/04/12 11:17:12;;;;;;;;;0.25;0.25;;;;;20.38;40.68;99714.41;5079879;27;45226;-37
2023/04/12 11:19:38;;;;;;;;;0.33;0.00;;;;;20.38;40.37;99716.19;5080091;28;45291;-37
2023/04/12 11:22:09;;;;;;;;;0.00;0.00;;;;;20.37;40.15;99710.06;5086161;27;45783;-37
2023/04/12 11:24:39;;;;;;;;;0.00;0.00;;;;;20.36;40.71;99708.41;5086044;27;46179;-38
2023/04/12 11:27:05;;;;;;;;;0.00;0.00;;;;;20.36;40.22;99716.28;5087176;27;45782;-37
2023/04/12 11:29:33;;;;;;;;;0.00;0.00;;;;;20.36;40.30;99708.41;5086333;27;45200;-37
2023/04/12 11:32:02;;;;;;;;;0.25;0.00;;;;;20.38;40.35;99700.41;5088489;27;45422;-37
2023/04/12 11:34:34;;;;;;;;;0.75;0.00;;;;;20.39;40.54;99699.47;5090820;28;47064;-37
2023/04/12 11:37:06;;;;;;;;;0.00;0.00;;;;;20.39;40.06;99710.81;5084965;27;45295;-37